createdAt,value
2023-04-02T00:00:15.353Z,93428.88
2023-04-02T00:02:55.396Z,93431.06
2023-04-02T00:05:30.344Z,93432.63
2023-04-02T00:08:00.669Z,93431.72
2023-04-02T00:10:29.249Z,93435.94
2023-04-02T00:13:01.452Z,93432.06
2023-04-02T00:15:28.694Z,93432.84
2023-04-02T00:17:56.324Z,93436.13
2023-04-02T00:20:24.131Z,93430.03
2023-04-02T00:22:51.070Z,93437.22
2023-04-02T00:25:17.690Z,93429.25
2023-04-02T00:27:44.312Z,93436.13
2023-04-02T00:30:13.301Z,93431.44
2023-04-02T00:32:40.373Z,93435.66
2023-04-02T00:35:13.235Z,93432.69
2023-04-02T00:37:42.255Z,93437.69
2023-04-02T00:40:19.458Z,93431.59
2023-04-02T00:42:48.125Z,93433.78
2023-04-02T00:45:37.011Z,93438.00
2023-04-02T00:48:28.810Z,93439.75
2023-04-02T00:50:56.994Z,93432.72
2023-04-02T00:53:31.615Z,93428.03
2023-04-02T00:55:59.135Z,93429.75
2023-04-02T00:58:37.016Z,93428.97
2023-04-02T01:01:16.925Z,93434.00
2023-04-02T01:03:54.001Z,93438.41
2023-04-02T01:06:22.251Z,93440.59
2023-04-02T01:08:48.811Z,93446.06
2023-04-02T01:11:53.120Z,93443.06
2023-04-02T01:14:57.448Z,93444.78
2023-04-02T01:17:48.897Z,93450.88
2023-04-02T01:20:30.947Z,93457.75
2023-04-02T01:23:02.555Z,93459.78
2023-04-02T01:25:41.893Z,93458.69
2023-04-02T01:28:29.736Z,93457.44
2023-04-02T01:30:58.914Z,93462.31
2023-04-02T01:33:32.766Z,93461.84
2023-04-02T01:36:17.508Z,93463.72
2023-04-02T01:39:02.224Z,93457.50
2023-04-02T01:41:51.246Z,93462.66
2023-04-02T01:44:27.984Z,93466.75
2023-04-02T01:46:55.553Z,93468.16
2023-04-02T01:49:22.795Z,93463.78
2023-04-02T01:51:56.788Z,93469.28
2023-04-02T01:54:25.920Z,93470.38
2023-04-02T01:56:52.809Z,93468.97
2023-04-02T01:59:22.286Z,93474.75
2023-04-02T02:02:01.507Z,93462.84
2023-04-02T02:04:29.474Z,93471.75
2023-04-02T02:07:00.754Z,93470.19
2023-04-02T02:09:32.476Z,93474.44
2023-04-02T02:12:00.309Z,93480.06
2023-04-02T02:14:29.293Z,93480.38
2023-04-02T02:17:02.080Z,93479.91
2023-04-02T02:19:47.901Z,93489.59
2023-04-02T02:22:37.154Z,93485.22
2023-04-02T02:25:11.927Z,93494.16
2023-04-02T02:27:47.828Z,93499.00
2023-04-02T02:30:27.573Z,93498.06
2023-04-02T02:33:26.987Z,93496.97
2023-04-02T02:35:57.732Z,93498.22
2023-04-02T02:38:42.654Z,93506.19
2023-04-02T02:41:24.710Z,93502.13
2023-04-02T02:44:11.570Z,93502.28
2023-04-02T02:46:51.576Z,93508.06
2023-04-02T02:49:27.006Z,93504.31
2023-04-02T02:52:14.478Z,93507.44
2023-04-02T02:55:04.615Z,93515.88
2023-04-02T02:58:04.641Z,93517.25
2023-04-02T03:00:38.393Z,93525.38
2023-04-02T03:03:09.624Z,93521.47
2023-04-02T03:05:39.109Z,93525.38
2023-04-02T03:08:21.563Z,93524.44
2023-04-02T03:11:02.494Z,93536.84
2023-04-02T03:13:35.362Z,93541.41
2023-04-02T03:16:16.505Z,93538.63
2023-04-02T03:18:44.465Z,93553.78
2023-04-02T03:21:15.080Z,93548.47
2023-04-02T03:23:48.528Z,93554.84
2023-04-02T03:26:24.950Z,93557.97
2023-04-02T03:28:59.246Z,93542.81
2023-04-02T03:31:33.150Z,93555.78
2023-04-02T03:34:17.955Z,93561.44
2023-04-02T03:37:23.478Z,93563.31
2023-04-02T03:39:59.612Z,93557.97
2023-04-02T03:42:37.299Z,93560.66
2023-04-02T03:45:25.359Z,93562.53
2023-04-02T03:48:09.939Z,93571.59
2023-04-02T03:50:55.623Z,93573.78
2023-04-02T04:04:30.546Z,93597.28
2023-04-02T04:14:06.169Z,93594.63
2023-04-02T04:21:03.121Z,93609.94
2023-04-02T04:24:31.914Z,93605.25
2023-04-02T04:27:54.364Z,93599.47
2023-04-02T04:30:43.395Z,93609.16
2023-04-02T04:38:04.681Z,93615.28
2023-04-02T04:43:57.132Z,93623.88
2023-04-02T04:46:33.607Z,93624.81
2023-04-02T04:49:50.268Z,93629.19
2023-04-02T04:52:24.856Z,93641.09
2023-04-02T04:56:30.266Z,93636.88
2023-04-02T04:59:40.997Z,93648.44
2023-04-02T05:03:08.855Z,93650.31
2023-04-02T05:06:18.298Z,93654.56
2023-04-02T05:12:23.569Z,93657.81
2023-04-02T05:15:40.870Z,93656.25
2023-04-02T05:19:10.639Z,93665.94
2023-04-02T05:21:50.360Z,93666.56
2023-04-02T05:25:02.916Z,93680.34
2023-04-02T05:31:39.512Z,93671.13
2023-04-02T05:34:09.627Z,93676.13
2023-04-02T05:36:38.432Z,93680.19
2023-04-02T05:39:12.145Z,93678.94
2023-04-02T05:41:51.018Z,93681.94
2023-04-02T05:44:36.842Z,93679.91
2023-04-02T05:47:19.819Z,93686.00
2023-04-02T05:50:12.338Z,93686.47
2023-04-02T05:53:05.487Z,93697.25
2023-04-02T05:55:45.885Z,93697.25
2023-04-02T06:05:34.524Z,93710.25
2023-04-02T06:11:57.190Z,93721.84
2023-04-02T06:14:59.939Z,93731.38
2023-04-02T06:18:05.359Z,93720.56
2023-04-02T06:21:16.814Z,93727.13
2023-04-02T06:30:00.780Z,93736.56
2023-04-02T06:31:49.459Z,93742.66
2023-04-02T06:34:44.932Z,93744.22
2023-04-02T06:37:32.533Z,93752.34
2023-04-02T06:40:40.653Z,93762.69
2023-04-02T06:46:48.709Z,93762.50
2023-04-02T06:49:56.071Z,93770.97
2023-04-02T06:53:12.596Z,93778.13
2023-04-02T06:58:42.386Z,93790.81
2023-04-02T07:01:20.337Z,93795.22
2023-04-02T07:03:49.895Z,93779.84
2023-04-02T07:06:29.534Z,93802.28
2023-04-02T07:09:21.930Z,93807.28
2023-04-02T07:12:03.254Z,93805.72
2023-04-02T07:14:35.431Z,93819.06
2023-04-02T07:17:03.043Z,93813.56
2023-04-02T07:19:31.695Z,93818.91
2023-04-02T07:22:03.805Z,93802.78
2023-04-02T07:24:37.843Z,93826.41
2023-04-02T07:27:06.021Z,93821.88
2023-04-02T07:29:33.928Z,93821.56
2023-04-02T07:32:01.648Z,93825.47
2023-04-02T07:34:31.930Z,93836.56
2023-04-02T07:37:05.031Z,93835.34
2023-04-02T07:39:40.788Z,93834.41
2023-04-02T07:42:28.115Z,93822.53
2023-04-02T07:49:05.698Z,93837.66
2023-04-02T07:51:46.624Z,93828.25
2023-04-02T07:54:15.616Z,93845.75
2023-04-02T07:56:56.546Z,93850.16
2023-04-02T07:59:38.050Z,93841.44
2023-04-02T08:02:24.091Z,93852.41
2023-04-02T08:04:52.413Z,93855.28
2023-04-02T08:10:07.756Z,93855.25
2023-04-02T08:12:35.616Z,93865.56
2023-04-02T08:15:17.618Z,93869.88
2023-04-02T08:17:59.878Z,93860.75
2023-04-02T08:20:31.123Z,93880.50
2023-04-02T08:22:59.006Z,93870.94
2023-04-02T08:25:27.708Z,93870.78
2023-04-02T08:27:55.411Z,93885.41
2023-04-02T08:30:26.389Z,93894.34
2023-04-02T08:32:57.285Z,93889.44
2023-04-02T08:35:52.579Z,93901.25
2023-04-02T08:38:22.704Z,93902.56
2023-04-02T08:40:56.034Z,93896.28
2023-04-02T08:43:29.082Z,93902.88
2023-04-02T08:46:05.560Z,93913.41
2023-04-02T08:48:37.086Z,93901.31
2023-04-02T08:51:09.080Z,93912.63
2023-04-02T08:53:39.510Z,93906.03
2023-04-02T08:56:42.299Z,93917.03
2023-04-02T08:59:25.002Z,93912.91
2023-04-02T09:02:07.143Z,93918.44
2023-04-02T09:04:35.322Z,93922.38
2023-04-02T09:07:04.164Z,93931.16
2023-04-02T09:09:39.503Z,93920.19
2023-04-02T09:12:24.440Z,93930.06
2023-04-02T09:15:19.033Z,93935.69
2023-04-02T09:18:05.438Z,93938.78
2023-04-02T09:20:32.982Z,93945.25
2023-04-02T09:23:01.153Z,93948.84
2023-04-02T09:25:34.820Z,93936.06
2023-04-02T09:28:06.006Z,93949.47
2023-04-02T09:30:33.435Z,93952.75
2023-04-02T09:33:10.159Z,93962.34
2023-04-02T09:35:50.379Z,93957.19
2023-04-02T09:38:26.973Z,93965.66
2023-04-02T09:40:58.206Z,93978.34
2023-04-02T09:43:37.799Z,93961.31
2023-04-02T09:46:23.267Z,93975.00
2023-04-02T09:48:54.481Z,93982.75
2023-04-02T09:51:25.846Z,93981.72
2023-04-02T09:54:13.770Z,93985.50
2023-04-02T09:56:41.415Z,93989.03
2023-04-02T09:59:18.414Z,93989.66
2023-04-02T10:01:50.527Z,93997.56
2023-04-02T10:04:36.483Z,94001.00
2023-04-02T10:07:04.541Z,94004.28
2023-04-02T10:09:36.623Z,94000.28
2023-04-02T10:12:07.149Z,94005.78
2023-04-02T10:14:43.382Z,94007.84
2023-04-02T10:17:21.102Z,94007.75
2023-04-02T10:19:54.793Z,94012.72
2023-04-02T10:22:23.508Z,94011.47
2023-04-02T10:24:51.147Z,94013.69
2023-04-02T10:27:37.722Z,94018.72
2023-04-02T10:30:15.987Z,94018.28
2023-04-02T10:33:10.271Z,94016.94
2023-04-02T10:35:55.457Z,94014.97
2023-04-02T10:38:42.625Z,94019.44
2023-04-02T10:41:18.368Z,94026.28
2023-04-02T10:44:28.990Z,94019.97
2023-04-02T10:47:27.357Z,94020.50
2023-04-02T10:50:08.574Z,94021.13
2023-04-02T10:53:02.335Z,94023.75
2023-04-02T10:55:32.665Z,94030.53
2023-04-02T10:58:06.974Z,94031.22
2023-04-02T11:00:37.233Z,94036.72
2023-04-02T11:03:14.865Z,94033.34
2023-04-02T11:05:53.373Z,94032.56
2023-04-02T11:08:22.968Z,94031.56
2023-04-02T11:10:59.874Z,94045.47
2023-04-02T11:13:38.561Z,94045.56
2023-04-02T11:16:05.885Z,94042.75
2023-04-02T11:18:38.899Z,94044.88
2023-04-02T11:21:28.400Z,94047.56
2023-04-02T11:24:02.809Z,94047.97
2023-04-02T11:26:41.631Z,94054.34
2023-04-02T11:29:16.798Z,94055.28
2023-04-02T11:31:44.687Z,94057.59
2023-04-02T11:34:34.155Z,94054.91
2023-04-02T11:37:03.514Z,94059.47
2023-04-02T11:39:47.137Z,94065.28
2023-04-02T11:42:19.979Z,94079.34
2023-04-02T11:44:46.650Z,94071.59
2023-04-02T11:47:27.563Z,94085.59
2023-04-02T11:50:04.325Z,94082.69
2023-04-02T11:52:36.862Z,94089.75
2023-04-02T11:55:20.424Z,94090.41
2023-04-02T11:57:55.729Z,94082.75
2023-04-02T12:00:42.144Z,94089.50
2023-04-02T12:03:35.296Z,94093.31
2023-04-02T12:06:18.842Z,94094.88
2023-04-02T12:09:25.982Z,94091.03
2023-04-02T12:11:55.980Z,94098.59
2023-04-02T12:14:37.950Z,94095.41
2023-04-02T12:17:13.780Z,94106.38
2023-04-02T12:19:40.690Z,94102.69
2023-04-02T12:22:19.822Z,94103.56
2023-04-02T12:24:48.347Z,94102.44
2023-04-02T12:27:22.841Z,94110.63
2023-04-02T12:29:52.684Z,94115.56
2023-04-02T12:32:23.867Z,94106.41
2023-04-02T12:34:53.201Z,94116.03
2023-04-02T12:37:28.265Z,94112.09
2023-04-02T12:40:08.386Z,94117.38
2023-04-02T12:42:37.116Z,94118.03
2023-04-02T12:45:06.803Z,94119.25
2023-04-02T12:47:33.766Z,94116.34
2023-04-02T12:50:02.099Z,94112.59
2023-04-02T12:52:29.744Z,94117.06
2023-04-02T12:55:03.882Z,94116.06
2023-04-02T12:57:30.593Z,94133.22
2023-04-02T13:00:05.782Z,94129.13
2023-04-02T13:02:44.702Z,94122.28
2023-04-02T13:05:12.373Z,94125.28
2023-04-02T13:07:39.853Z,94131.28
2023-04-02T13:10:25.668Z,94125.16
2023-04-02T13:13:03.497Z,94130.84
2023-04-02T13:15:36.673Z,94126.09
2023-04-02T13:18:07.782Z,94135.69
2023-04-02T13:20:40.044Z,94130.78
2023-04-02T13:23:28.821Z,94137.09
2023-04-02T13:25:56.860Z,94134.97
2023-04-02T13:28:23.569Z,94140.84
2023-04-02T13:30:50.260Z,94141.19
2023-04-02T13:33:17.360Z,94139.50
2023-04-02T13:35:44.281Z,94139.16
2023-04-02T13:38:10.954Z,94146.97
2023-04-02T13:40:38.286Z,94139.59
2023-04-02T13:43:06.508Z,94145.56
2023-04-02T13:45:37.794Z,94142.41
2023-04-02T13:48:05.943Z,94142.84
2023-04-02T13:50:34.744Z,94148.84
2023-04-02T13:53:07.816Z,94145.00
2023-04-02T13:55:40.633Z,94148.59
2023-04-02T13:58:07.349Z,94156.38
2023-04-02T14:00:37.792Z,94154.50
2023-04-02T14:03:11.187Z,94148.28
2023-04-02T14:06:10.566Z,94155.00
2023-04-02T14:09:16.659Z,94158.66
2023-04-02T14:12:18.454Z,94158.50
2023-04-02T14:15:22.708Z,94163.91
2023-04-02T14:18:11.295Z,94165.16
2023-04-02T14:20:54.228Z,94171.44
2023-04-02T14:23:59.643Z,94169.97
2023-04-02T14:27:03.010Z,94179.56
2023-04-02T14:29:45.453Z,94176.94
2023-04-02T14:32:17.999Z,94178.69
2023-04-02T14:35:07.593Z,94187.00
2023-04-02T14:37:34.220Z,94181.63
2023-04-02T14:40:10.403Z,94185.09
2023-04-02T14:43:01.931Z,94188.56
2023-04-02T14:45:50.676Z,94192.84
2023-04-02T14:48:29.513Z,94198.06
2023-04-02T14:51:02.285Z,94199.53
2023-04-02T14:54:04.483Z,94199.44
2023-04-02T14:56:36.496Z,94200.44
2023-04-02T14:59:32.175Z,94202.50
2023-04-02T15:02:03.997Z,94202.50
2023-04-02T15:04:45.785Z,94208.81
2023-04-02T15:07:42.372Z,94207.06
2023-04-02T15:10:22.169Z,94218.38
2023-04-02T15:12:51.219Z,94210.22
2023-04-02T15:15:44.551Z,94219.63
2023-04-02T15:18:15.211Z,94218.06
2023-04-02T15:21:04.816Z,94229.22
2023-04-02T15:24:02.571Z,94235.22
2023-04-02T15:27:07.148Z,94238.66
2023-04-02T15:30:09.496Z,94242.16
2023-04-02T15:32:40.673Z,94243.22
2023-04-02T15:35:27.197Z,94247.34
2023-04-02T15:38:05.797Z,94247.78
2023-04-02T15:40:54.660Z,94259.22
2023-04-02T15:43:22.584Z,94261.81
2023-04-02T15:46:09.209Z,94259.78
2023-04-02T15:48:49.584Z,94265.41
2023-04-02T15:51:23.587Z,94268.56
2023-04-02T15:54:05.320Z,94264.13
2023-04-02T15:56:59.624Z,94269.59
2023-04-02T16:00:09.475Z,94275.38
2023-04-02T16:03:17.695Z,94273.13
2023-04-02T16:06:22.104Z,94280.50
2023-04-02T16:13:20.372Z,94300.97
2023-04-02T16:15:56.194Z,94294.69
2023-04-02T16:19:19.124Z,94298.13
2023-04-02T16:22:22.152Z,94315.19
2023-04-02T16:25:11.541Z,94306.44
2023-04-02T16:28:15.264Z,94321.31
2023-04-02T16:31:13.700Z,94324.69
2023-04-02T16:38:37.890Z,94342.16
2023-04-02T16:42:02.059Z,94348.94
2023-04-02T16:44:36.359Z,94346.97
2023-04-02T16:47:23.102Z,94360.28
2023-04-02T16:50:41.986Z,94354.16
2023-04-02T16:53:50.899Z,94357.72
2023-04-02T16:57:40.609Z,94345.03
2023-04-02T17:00:28.205Z,94370.25
2023-04-02T17:05:57.180Z,94378.84
2023-04-02T17:08:39.970Z,94384.16
2023-04-02T17:11:24.769Z,94376.41
2023-04-02T17:15:01.928Z,94390.56
2023-04-02T17:18:05.851Z,94402.41
2023-04-02T17:32:43.456Z,94414.44
2023-04-02T17:39:29.050Z,94431.88
2023-04-02T17:42:30.391Z,94429.72
2023-04-02T17:44:58.153Z,94434.25
2023-04-02T17:48:37.633Z,94441.59
2023-04-02T17:52:18.501Z,94438.50
2023-04-02T17:56:08.211Z,94449.63
2023-04-02T17:59:38.560Z,94451.34
2023-04-02T18:02:54.669Z,94453.34
2023-04-02T18:05:51.802Z,94457.00
2023-04-02T18:09:01.540Z,94465.63
2023-04-02T18:27:02.313Z,94501.66
2023-04-02T18:30:05.670Z,94511.34
2023-04-02T18:36:27.105Z,94535.50
2023-04-02T18:39:04.716Z,94534.03
2023-04-02T18:42:51.778Z,94547.47
2023-04-02T18:46:16.201Z,94546.03
2023-04-02T18:48:56.398Z,94550.41
2023-04-02T18:51:26.700Z,94543.38
2023-04-02T18:54:13.244Z,94565.31
2023-04-02T18:57:53.061Z,94570.09
2023-04-02T19:01:21.607Z,94578.59
2023-04-02T19:04:38.779Z,94587.63
2023-04-02T19:07:14.651Z,94583.34
2023-04-02T19:09:47.889Z,94582.06
2023-04-02T19:12:20.056Z,94595.47
2023-04-02T19:14:53.950Z,94593.59
2023-04-02T19:17:43.256Z,94587.09
2023-04-02T19:20:17.661Z,94601.50
2023-04-02T19:23:24.364Z,94597.81
2023-04-02T19:26:29.164Z,94614.34
2023-04-02T19:29:23.816Z,94610.47
2023-04-02T19:32:26.516Z,94621.31
2023-04-02T19:35:16.440Z,94626.06
2023-04-02T19:38:17.596Z,94621.34
2023-04-02T19:41:48.730Z,94627.81
2023-04-02T19:44:27.422Z,94633.63
2023-04-02T19:46:55.707Z,94635.25
2023-04-02T19:49:35.490Z,94633.06
2023-04-02T19:52:03.926Z,94646.84
2023-04-02T19:54:42.370Z,94641.06
2023-04-02T19:57:22.933Z,94644.03
2023-04-02T19:59:57.575Z,94648.31
2023-04-02T20:02:28.533Z,94632.50
2023-04-02T20:04:59.512Z,94651.22
2023-04-02T20:07:27.416Z,94652.28
2023-04-02T20:09:55.184Z,94646.72
2023-04-02T20:12:24.051Z,94650.75
2023-04-02T20:14:56.644Z,94637.00
2023-04-02T20:17:35.684Z,94664.00
2023-04-02T20:20:04.628Z,94656.84
2023-04-02T20:22:40.516Z,94663.72
2023-04-02T20:25:17.388Z,94666.41
2023-04-02T20:27:46.092Z,94677.56
2023-04-02T20:30:17.133Z,94682.09
2023-04-02T20:32:46.342Z,94686.63
2023-04-02T20:35:23.316Z,94690.06
2023-04-02T20:38:18.189Z,94693.78
2023-04-02T20:40:55.991Z,94696.97
2023-04-02T20:43:43.542Z,94700.41
2023-04-02T20:46:22.465Z,94690.59
2023-04-02T20:49:00.391Z,94701.97
2023-04-02T20:51:29.166Z,94685.31
2023-04-02T20:54:04.813Z,94711.78
2023-04-02T20:56:33.282Z,94711.53
2023-04-02T20:59:01.780Z,94716.56
2023-04-02T21:01:31.836Z,94717.09
2023-04-02T21:04:06.107Z,94726.59
2023-04-02T21:06:37.407Z,94730.78
2023-04-02T21:09:08.874Z,94730.00
2023-04-02T21:11:37.414Z,94729.53
2023-04-02T21:14:05.621Z,94734.84
2023-04-02T21:16:34.094Z,94728.22
2023-04-02T21:19:05.733Z,94738.81
2023-04-02T21:21:35.055Z,94743.06
2023-04-02T21:24:07.917Z,94737.22
2023-04-02T21:26:41.903Z,94737.78
2023-04-02T21:29:12.067Z,94731.97
2023-04-02T21:31:50.536Z,94738.56
2023-04-02T21:34:19.351Z,94745.22
2023-04-02T21:36:55.770Z,94742.84
2023-04-02T21:39:24.658Z,94738.34
2023-04-02T21:41:53.591Z,94753.16
2023-04-02T21:44:23.707Z,94752.91
2023-04-02T21:47:02.712Z,94745.22
2023-04-02T21:49:31.050Z,94758.19
2023-04-02T21:51:58.873Z,94753.16
2023-04-02T21:54:38.311Z,94759.53
2023-04-02T21:57:08.573Z,94754.75
2023-04-02T21:59:36.350Z,94767.50
2023-04-02T22:02:05.138Z,94755.31
2023-04-02T22:04:33.689Z,94765.91
2023-04-02T22:07:01.556Z,94773.84
2023-04-02T22:09:29.980Z,94777.03
2023-04-02T22:12:08.828Z,94756.91
2023-04-02T22:14:39.302Z,94769.06
2023-04-02T22:17:07.601Z,94766.97
2023-04-02T22:19:35.314Z,94767.78
2023-04-02T22:22:03.580Z,94774.13
2023-04-02T22:24:37.459Z,94774.91
2023-04-02T22:27:05.215Z,94765.38
2023-04-02T22:29:32.807Z,94767.50
2023-04-02T22:32:00.274Z,94768.28
2023-04-02T22:34:27.970Z,94780.72
2023-04-02T22:36:56.812Z,94775.69
2023-04-02T22:39:24.397Z,94772.50
2023-04-02T22:41:52.483Z,94788.66
2023-04-02T22:44:23.636Z,94776.50
2023-04-02T22:46:52.925Z,94780.47
2023-04-02T22:49:21.944Z,94785.75
2023-04-02T22:51:50.747Z,94793.66
2023-04-02T22:54:40.074Z,94797.91
2023-04-02T22:57:32.496Z,94800.31
2023-04-02T23:00:05.031Z,94798.19
2023-04-02T23:02:32.731Z,94800.03
2023-04-02T23:05:01.155Z,94801.34
2023-04-02T23:07:30.383Z,94806.13
2023-04-02T23:10:00.802Z,94807.16
2023-04-02T23:12:31.672Z,94808.47
2023-04-02T23:15:00.148Z,94805.56
2023-04-02T23:17:36.495Z,94809.53
2023-04-02T23:20:26.424Z,94796.31
2023-04-02T23:22:53.781Z,94806.38
2023-04-02T23:25:21.486Z,94815.09
2023-04-02T23:27:50.563Z,94813.53
2023-04-02T23:30:19.363Z,94818.31
2023-04-02T23:32:47.422Z,94817.25
2023-04-02T23:35:18.057Z,94816.19
2023-04-02T23:37:48.966Z,94810.63
2023-04-02T23:40:17.152Z,94810.88
2023-04-02T23:42:44.545Z,94787.31
2023-04-02T23:45:12.149Z,94813.00
2023-04-02T23:47:39.832Z,94810.34
2023-04-02T23:50:08.508Z,94804.50
2023-04-02T23:52:36.386Z,94800.56
2023-04-02T23:55:07.325Z,94812.47
2023-04-02T23:57:34.795Z,94782.31
